Spirit Of Brazil — V7OG5 — position and weather

sailwx.info

Track history (hours):
 
Tides and Currents Weather Stations Pressure Air Temp Water Temp Dewpoint Dewpoint Depression Visibility Wind Speed Wind Dir Waves Ship Positions

Spirit Of Brazil

Last reported at 2017-Dec-10 19:18 UTC. Time now 2017-Dec-12 12:30 UTC.
Position N 23°39' E 119°54'.

Length 224 m; draft 7 m.

Type: Cargo ship. MMSI: 538003084.

Date/timePositionNaut miles runAvg speedWind from/ knotsBaromVisibWave heightAir tempDewpointWater temp
2017-Dec-10 19:18N 23°39' E 119°54'310.9
2017-Dec-10 19:00N 23°36' E 119°54'710.7
2017-Dec-10 18:21N 23°29' E 119°53'411.3
2017-Dec-10 18:00N 23°25' E 119°52'1611.7
2017-Dec-10 16:41N 23°11' E 119°46'511.1
2017-Dec-10 16:11N 23°06' E 119°43'2810.7
2017-Dec-10 13:32N 22°42' E 119°28'010.7
2017-Dec-10 13:30N 22°41' E 119°27'511.0
2017-Dec-10 13:00N 22°36' E 119°25'611.2
2017-Dec-10 12:30N 22°32' E 119°22'511.0
2017-Dec-10 12:00N 22°27' E 119°19'510.8
2017-Dec-10 11:31N 22°22' E 119°16'  
2017-Dec-03 06:59N 01°15' E 104°03'4 0.4
2017-Dec-02 22:02N 01°18' E 104°01'0 0.0
2017-Dec-02 20:14N 01°18' E 104°01'3 1.1
2017-Dec-02 17:35N 01°16' E 103°58'1 8.7
2017-Dec-02 17:30N 01°16' E 103°57'2 4.6
2017-Dec-02 17:00N 01°14' E 103°56'5 8.0
2017-Dec-02 16:25N 01°11' E 103°52'4 9.0
2017-Dec-02 16:00N 01°10' E 103°49'  
Track history (hours):
 
Tides and Currents Weather Stations Pressure Air Temp Water Temp Dewpoint Dewpoint Depression Visibility Wind Speed Wind Dir Waves Ship Positions

Spirit Of Brazil

Last reported at 2017-Dec-10 19:18 UTC. Time now 2017-Dec-12 12:30 UTC.
Position N 23°39' E 119°54'.

Length 224 m; draft 7 m.

Type: Cargo ship. MMSI: 538003084.

Date/timePositionNaut miles runAvg speedWind from/ knotsBaromVisibWave heightAir tempDewpointWater temp
2017-Dec-10 19:18N 23°39' E 119°54'310.9
2017-Dec-10 19:00N 23°36' E 119°54'710.7
2017-Dec-10 18:21N 23°29' E 119°53'411.3
2017-Dec-10 18:00N 23°25' E 119°52'1611.7
2017-Dec-10 16:41N 23°11' E 119°46'511.1
2017-Dec-10 16:11N 23°06' E 119°43'2810.7
2017-Dec-10 13:32N 22°42' E 119°28'010.7
2017-Dec-10 13:30N 22°41' E 119°27'511.0
2017-Dec-10 13:00N 22°36' E 119°25'611.2
2017-Dec-10 12:30N 22°32' E 119°22'511.0
2017-Dec-10 12:00N 22°27' E 119°19'510.8
2017-Dec-10 11:31N 22°22' E 119°16'  
2017-Dec-03 06:59N 01°15' E 104°03'4 0.4
2017-Dec-02 22:02N 01°18' E 104°01'0 0.0
2017-Dec-02 20:14N 01°18' E 104°01'3 1.1
2017-Dec-02 17:35N 01°16' E 103°58'1 8.7
2017-Dec-02 17:30N 01°16' E 103°57'2 4.6
2017-Dec-02 17:00N 01°14' E 103°56'5 8.0
2017-Dec-02 16:25N 01°11' E 103°52'4 9.0
2017-Dec-02 16:00N 01°10' E 103°49'  

Dump ship's entire track history